Time;durP1;ratioP1;P1;durP2;ratioP2;P2;SDS_P1;SDS_P2;PMS_P1;PMS_P2;Temp;Humidity;BMP_temperature;BMP_pressure;BME280_temperature;BME280_humidity;BME280_pressure;Samples;Min_cycle;Max_cycle;Signal;HPM_P1;HPM_P2
2023/07/01 00:01:38;;;;;;;4.20;2.28;;;16.80;99.90;;;;;;5022120;28;20487;-81
2023/07/01 00:04:04;;;;;;;3.38;2.10;;;16.80;99.90;;;;;;5034438;28;20551;-80
2023/07/01 00:06:29;;;;;;;2.53;2.20;;;16.80;99.90;;;;;;5045450;28;20056;-80
2023/07/01 00:08:55;;;;;;;3.45;1.92;;;16.80;99.90;;;;;;5025172;28;20078;-81
2023/07/01 00:11:21;;;;;;;2.50;1.75;;;16.80;99.90;;;;;;5044119;28;20556;-81
2023/07/01 00:13:47;;;;;;;5.45;2.00;;;16.80;99.90;;;;;;5034390;28;20109;-88
2023/07/01 00:16:15;;;;;;;2.45;1.75;;;16.80;99.90;;;;;;5023323;28;20041;-79
2023/07/01 00:18:41;;;;;;;2.30;2.10;;;16.80;99.90;;;;;;5018850;28;20033;-81
2023/07/01 00:21:07;;;;;;;2.65;1.80;;;16.80;99.90;;;;;;5030734;28;20075;-80
2023/07/01 00:23:33;;;;;;;2.65;1.95;;;16.80;99.90;;;;;;5019761;28;20045;-80
2023/07/01 00:25:59;;;;;;;2.88;2.10;;;16.80;99.90;;;;;;5051436;28;20051;-79
2023/07/01 00:28:25;;;;;;;2.53;2.15;;;16.80;99.90;;;;;;5023963;28;20033;-86
2023/07/01 00:30:51;;;;;;;4.63;2.20;;;16.80;99.90;;;;;;5022769;28;20053;-84
2023/07/01 00:33:16;;;;;;;2.35;2.00;;;16.80;99.90;;;;;;5034043;28;20500;-80
2023/07/01 00:35:42;;;;;;;5.22;2.28;;;16.80;99.90;;;;;;5029750;28;20040;-78
2023/07/01 00:38:07;;;;;;;3.78;2.03;;;16.80;99.90;;;;;;5052916;28;20036;-82
2023/07/01 00:40:33;;;;;;;3.15;1.80;;;16.80;99.90;;;;;;5051392;28;20029;-81
2023/07/01 00:42:58;;;;;;;4.35;2.25;;;16.80;99.90;;;;;;5050486;28;20037;-81
2023/07/01 00:45:24;;;;;;;3.08;1.98;;;16.80;99.90;;;;;;5045914;28;20028;-83
2023/07/01 00:47:49;;;;;;;2.75;2.13;;;16.80;99.90;;;;;;5031973;28;20115;-80
2023/07/01 00:50:15;;;;;;;4.95;1.88;;;16.90;99.90;;;;;;5026107;28;20096;-81
2023/07/01 00:52:42;;;;;;;3.42;2.03;;;16.90;99.90;;;;;;5021787;28;20496;-82
2023/07/01 00:55:09;;;;;;;3.55;2.00;;;16.90;99.90;;;;;;5048794;28;20064;-81
2023/07/01 00:57:35;;;;;;;3.00;1.88;;;16.90;99.90;;;;;;5043447;28;20030;-81
2023/07/01 01:00:10;;;;;;;2.75;1.73;;;16.90;99.90;;;;;;5019537;28;20025;-80
2023/07/01 01:03:00;;;;;;;4.43;2.15;;;16.90;99.90;;;;;;5022091;28;20052;-83
2023/07/01 01:05:33;;;;;;;2.25;1.40;;;16.90;99.90;;;;;;5028375;28;20029;-80
2023/07/01 01:08:08;;;;;;;3.53;1.65;;;16.90;99.90;;;;;;5030310;28;20048;-79
2023/07/01 01:10:35;;;;;;;2.65;1.80;;;16.90;99.90;;;;;;5049364;28;20035;-81
2023/07/01 01:13:03;;;;;;;3.00;1.40;;;16.90;99.90;;;;;;5044307;28;20032;-80
2023/07/01 01:15:29;;;;;;;2.55;1.67;;;16.90;99.90;;;;;;5042291;28;20022;-80
2023/07/01 01:17:57;;;;;;;3.88;2.28;;;16.90;99.90;;;;;;5023009;28;20029;-79
2023/07/01 01:20:23;;;;;;;2.05;1.55;;;16.90;99.90;;;;;;5025261;28;20100;-79
2023/07/01 01:23:01;;;;;;;1.80;1.70;;;16.90;99.90;;;;;;5046271;28;20017;-80
2023/07/01 01:25:43;;;;;;;1.67;1.48;;;16.90;99.90;;;;;;5046596;28;20032;-80
2023/07/01 01:28:09;;;;;;;2.10;1.88;;;16.90;99.90;;;;;;5046275;28;20055;-81
2023/07/01 01:30:35;;;;;;;2.65;1.83;;;16.90;99.90;;;;;;5026889;28;20037;-80
2023/07/01 01:33:01;;;;;;;2.67;2.00;;;16.90;99.90;;;;;;5035747;28;20021;-82
2023/07/01 01:35:27;;;;;;;2.45;1.85;;;16.90;99.90;;;;;;5027364;28;20064;-81
2023/07/01 01:38:06;;;;;;;1.63;1.50;;;17.00;99.90;;;;;;5030838;28;20125;-83
2023/07/01 01:40:43;;;;;;;3.83;1.55;;;16.90;99.90;;;;;;5038516;28;20093;-79
2023/07/01 01:43:14;;;;;;;3.15;1.55;;;16.90;99.90;;;;;;5029450;28;20032;-79
2023/07/01 01:45:40;;;;;;;2.65;1.58;;;16.90;99.90;;;;;;5024850;28;20123;-81
2023/07/01 01:48:07;;;;;;;1.92;1.55;;;16.90;99.90;;;;;;5032559;28;20032;-84
2023/07/01 01:50:34;;;;;;;2.22;1.80;;;16.90;99.90;;;;;;5015557;28;20098;-80
2023/07/01 01:53:01;;;;;;;2.35;1.70;;;16.90;99.90;;;;;;5044814;28;20025;-80
2023/07/01 01:55:29;;;;;;;3.80;1.83;;;16.90;99.90;;;;;;5027803;28;20169;-81
2023/07/01 01:57:55;;;;;;;2.38;1.60;;;16.90;99.90;;;;;;5023763;28;20033;-81
2023/07/01 02:00:20;;;;;;;1.63;1.50;;;16.90;99.90;;;;;;5026972;28;20026;-80
2023/07/01 02:02:46;;;;;;;2.05;1.60;;;16.90;99.90;;;;;;5026576;28;20013;-80
2023/07/01 02:05:11;;;;;;;4.53;1.75;;;16.90;99.90;;;;;;5037205;28;20103;-79
2023/07/01 02:07:38;;;;;;;4.47;1.60;;;16.90;99.90;;;;;;5045117;28;20063;-81
2023/07/01 02:10:04;;;;;;;2.00;1.48;;;16.90;99.90;;;;;;5045881;28;20029;-80
2023/07/01 02:12:30;;;;;;;3.78;1.70;;;16.80;99.90;;;;;;5047705;28;20022;-81
2023/07/01 02:14:56;;;;;;;2.13;1.70;;;16.80;99.90;;;;;;5026545;28;20025;-80
2023/07/01 02:17:21;;;;;;;2.70;1.95;;;16.80;99.90;;;;;;5025950;28;20032;-78
2023/07/01 02:19:47;;;;;;;4.32;1.70;;;16.80;99.90;;;;;;5030680;28;20075;-81
2023/07/01 02:22:12;;;;;;;2.30;1.75;;;16.80;99.90;;;;;;5025656;28;20025;-80
2023/07/01 02:24:38;;;;;;;2.08;1.50;;;16.80;99.90;;;;;;5017980;28;20021;-80
2023/07/01 02:27:04;;;;;;;3.03;2.08;;;16.80;99.90;;;;;;5027566;28;20566;-79
2023/07/01 02:29:29;;;;;;;2.65;2.10;;;16.80;99.90;;;;;;5024232;28;20480;-79
2023/07/01 02:31:55;;;;;;;2.63;2.05;;;16.80;99.90;;;;;;5020627;28;20056;-79
2023/07/01 02:34:28;;;;;;;3.53;1.98;;;16.80;99.90;;;;;;5027833;28;20025;-80
2023/07/01 02:36:54;;;;;;;2.28;2.08;;;16.80;99.90;;;;;;5019178;28;20021;-81
2023/07/01 02:39:20;;;;;;;1.77;1.45;;;16.80;99.90;;;;;;5024694;28;20373;-80
2023/07/01 02:41:45;;;;;;;2.75;2.10;;;16.80;99.90;;;;;;5039415;28;20029;-81
2023/07/01 02:44:11;;;;;;;4.18;2.00;;;16.80;99.90;;;;;;5031226;28;20075;-81
2023/07/01 02:46:37;;;;;;;4.40;1.80;;;16.80;99.90;;;;;;5025501;28;20021;-83
2023/07/01 02:49:02;;;;;;;3.05;1.63;;;16.80;99.90;;;;;;5033047;28;20035;-81
2023/07/01 02:51:28;;;;;;;2.28;1.70;;;16.80;99.90;;;;;;5039813;28;20542;-81
2023/07/01 02:53:54;;;;;;;2.40;1.65;;;16.80;99.90;;;;;;5021844;28;20029;-81
2023/07/01 02:56:19;;;;;;;4.25;2.00;;;16.80;99.90;;;;;;5026746;28;20033;-80
2023/07/01 02:58:45;;;;;;;3.97;2.05;;;16.80;99.90;;;;;;5032855;28;20067;-80
2023/07/01 03:01:10;;;;;;;2.20;1.58;;;16.80;99.90;;;;;;5031506;28;20051;-82
2023/07/01 03:03:36;;;;;;;2.90;2.38;;;16.80;99.90;;;;;;5025217;28;20714;-80
2023/07/01 03:06:02;;;;;;;1.95;1.75;;;16.80;99.90;;;;;;5020311;28;20029;-80
2023/07/01 03:08:27;;;;;;;2.00;1.80;;;16.80;99.90;;;;;;5018011;28;20033;-79
2023/07/01 03:10:53;;;;;;;2.70;2.20;;;16.80;99.90;;;;;;5026164;28;20444;-80
2023/07/01 03:13:18;;;;;;;2.03;1.90;;;16.80;99.90;;;;;;5022199;28;20120;-80
2023/07/01 03:15:44;;;;;;;2.95;2.33;;;16.80;99.90;;;;;;5025269;28;20021;-81
2023/07/01 03:18:09;;;;;;;2.25;2.05;;;16.80;99.90;;;;;;5026582;28;20029;-83
2023/07/01 03:20:35;;;;;;;2.10;1.92;;;16.80;99.90;;;;;;5018052;28;20053;-81
2023/07/01 03:23:00;;;;;;;2.58;2.00;;;16.80;99.90;;;;;;5019862;28;20028;-80
2023/07/01 03:25:27;;;;;;;2.33;2.05;;;16.80;99.90;;;;;;5021961;28;20508;-80
2023/07/01 03:27:53;;;;;;;3.78;1.88;;;16.80;99.90;;;;;;5024395;28;20025;-78
2023/07/01 03:30:21;;;;;;;1.83;1.60;;;16.80;99.90;;;;;;5028842;28;20035;-80
2023/07/01 03:32:47;;;;;;;2.30;1.55;;;16.80;99.90;;;;;;5031680;28;20028;-82
2023/07/01 03:35:14;;;;;;;3.08;2.00;;;16.80;99.90;;;;;;5043340;28;20029;-79
2023/07/01 03:37:41;;;;;;;1.85;1.42;;;16.80;99.90;;;;;;5022939;28;20022;-80
2023/07/01 03:40:10;;;;;;;2.80;1.48;;;16.80;99.90;;;;;;5045873;28;20059;-78
2023/07/01 03:42:37;;;;;;;2.03;1.50;;;16.80;99.90;;;;;;5026742;28;20032;-80
2023/07/01 03:45:05;;;;;;;3.22;1.95;;;16.80;99.90;;;;;;5017362;28;20026;-79
2023/07/01 03:47:31;;;;;;;4.28;2.63;;;16.90;99.90;;;;;;5017207;28;20167;-81
2023/07/01 03:49:56;;;;;;;5.20;1.80;;;16.90;99.90;;;;;;5025961;28;20635;-79
2023/07/01 03:52:22;;;;;;;4.20;1.92;;;16.80;99.90;;;;;;5023084;28;20032;-78
2023/07/01 03:54:47;;;;;;;5.70;2.22;;;16.80;99.90;;;;;;5041253;28;20025;-80
2023/07/01 03:57:13;;;;;;;2.05;1.70;;;16.80;99.90;;;;;;5028268;28;20040;-80
2023/07/01 03:59:39;;;;;;;4.20;3.00;;;16.80;99.90;;;;;;5023365;28;20109;-78
2023/07/01 04:02:05;;;;;;;8.48;2.58;;;16.80;99.90;;;;;;5040213;28;20029;-80
2023/07/01 04:04:30;;;;;;;3.03;2.42;;;16.80;99.90;;;;;;5026339;28;20127;-80
2023/07/01 04:06:57;;;;;;;2.05;1.73;;;16.80;99.90;;;;;;5013356;28;20097;-80
2023/07/01 04:09:23;;;;;;;3.17;2.40;;;16.80;99.90;;;;;;5023678;28;20059;-80
2023/07/01 04:11:49;;;;;;;3.08;2.10;;;16.90;99.90;;;;;;5016396;28;20021;-80
2023/07/01 04:14:15;;;;;;;2.67;1.60;;;16.90;99.90;;;;;;5034633;28;20116;-79
2023/07/01 04:16:44;;;;;;;4.63;1.70;;;16.90;99.90;;;;;;5047672;28;20064;-80
2023/07/01 04:19:10;;;;;;;2.83;2.28;;;16.90;99.90;;;;;;5019451;28;20033;-79
2023/07/01 04:21:36;;;;;;;3.75;2.20;;;16.90;99.90;;;;;;5017193;28;20048;-80
2023/07/01 04:24:06;;;;;;;4.53;2.65;;;16.90;99.90;;;;;;5040728;28;20253;-80
2023/07/01 04:26:31;;;;;;;2.50;2.30;;;16.90;99.90;;;;;;5023476;28;20017;-81
2023/07/01 04:28:57;;;;;;;4.40;2.35;;;16.90;99.90;;;;;;5020229;28;20136;-78
2023/07/01 04:31:23;;;;;;;2.35;2.13;;;16.90;99.90;;;;;;5040234;28;20064;-79
2023/07/01 04:33:49;;;;;;;2.10;2.00;;;16.90;99.90;;;;;;5029085;28;20020;-78
2023/07/01 04:36:14;;;;;;;3.05;1.85;;;16.90;99.90;;;;;;5021101;28;20436;-80
2023/07/01 04:38:41;;;;;;;2.65;2.00;;;16.90;99.90;;;;;;5030375;28;20021;-78
2023/07/01 04:41:06;;;;;;;3.08;2.38;;;16.90;99.90;;;;;;5027639;28;20045;-79
2023/07/01 04:43:32;;;;;;;2.58;2.00;;;16.90;99.90;;;;;;5043733;28;20045;-78
2023/07/01 04:45:57;;;;;;;3.15;2.20;;;16.90;99.90;;;;;;5038222;28;20108;-79
2023/07/01 04:48:23;;;;;;;2.53;2.33;;;16.90;99.90;;;;;;5042237;28;20021;-77
2023/07/01 04:50:49;;;;;;;2.65;2.33;;;16.90;99.90;;;;;;5044357;28;20021;-79
2023/07/01 04:53:14;;;;;;;2.70;2.47;;;16.90;99.90;;;;;;5020371;28;20377;-79
2023/07/01 04:55:40;;;;;;;2.95;2.53;;;16.80;99.90;;;;;;5024742;28;20024;-78
2023/07/01 04:58:06;;;;;;;5.18;2.95;;;16.80;99.90;;;;;;5023735;28;20116;-79
2023/07/01 05:00:32;;;;;;;3.72;2.45;;;16.80;99.90;;;;;;5024208;28;20033;-78
2023/07/01 05:02:58;;;;;;;2.78;2.42;;;16.70;99.90;;;;;;5024342;28;20052;-79
2023/07/01 05:05:24;;;;;;;3.50;2.72;;;16.70;99.90;;;;;;5024456;28;20611;-80
2023/07/01 05:07:49;;;;;;;5.15;2.58;;;16.70;99.90;;;;;;5036590;28;20036;-79
2023/07/01 05:10:15;;;;;;;4.28;2.38;;;16.70;99.90;;;;;;5026891;28;20029;-78
2023/07/01 05:12:40;;;;;;;3.42;2.65;;;16.70;99.90;;;;;;5021052;28;20112;-78
2023/07/01 05:15:06;;;;;;;2.20;1.90;;;16.70;99.90;;;;;;5029355;28;20032;-79
2023/07/01 05:17:32;;;;;;;3.42;2.22;;;16.70;99.90;;;;;;5019969;28;20018;-79
2023/07/01 05:19:57;;;;;;;3.58;2.25;;;16.70;99.90;;;;;;5035081;28;20017;-78
2023/07/01 05:22:23;;;;;;;3.28;2.70;;;16.70;99.90;;;;;;5025170;28;20045;-78
2023/07/01 05:24:49;;;;;;;3.30;3.00;;;16.70;99.90;;;;;;5016433;28;20112;-79
2023/07/01 05:27:14;;;;;;;3.15;2.70;;;16.70;99.90;;;;;;5024626;28;20212;-78
2023/07/01 05:29:40;;;;;;;4.97;2.50;;;16.70;99.90;;;;;;5035858;28;20484;-79
2023/07/01 05:32:07;;;;;;;3.08;2.40;;;16.70;99.90;;;;;;5045183;28;20025;-80
2023/07/01 05:34:32;;;;;;;4.22;2.38;;;16.80;99.90;;;;;;5010825;28;20025;-79
2023/07/01 05:36:58;;;;;;;3.85;2.45;;;16.80;99.90;;;;;;5038378;28;20865;-81
2023/07/01 05:39:24;;;;;;;3.38;2.88;;;16.80;99.90;;;;;;5038699;28;20014;-82
2023/07/01 05:41:50;;;;;;;5.35;2.53;;;16.80;99.90;;;;;;5024049;28;20041;-79
2023/07/01 05:44:16;;;;;;;4.68;2.28;;;16.90;99.90;;;;;;5044241;28;20349;-80
2023/07/01 05:46:41;;;;;;;3.75;2.40;;;16.80;99.90;;;;;;5021683;28;20037;-80
2023/07/01 05:49:08;;;;;;;5.57;2.78;;;16.80;99.90;;;;;;5027225;28;20112;-77
2023/07/01 05:51:34;;;;;;;4.53;2.40;;;16.80;99.90;;;;;;5035236;28;20080;-80
2023/07/01 05:53:59;;;;;;;3.50;2.85;;;16.80;99.90;;;;;;5027696;28;20033;-78
2023/07/01 05:56:25;;;;;;;4.72;3.10;;;16.80;99.90;;;;;;5042144;28;20464;-77
2023/07/01 05:58:51;;;;;;;3.88;2.60;;;16.80;99.90;;;;;;5024720;28;20039;-80
2023/07/01 06:01:16;;;;;;;4.60;2.88;;;16.70;99.90;;;;;;5017444;28;20163;-78
2023/07/01 06:03:42;;;;;;;3.75;2.75;;;16.70;99.90;;;;;;5020600;28;20014;-77
2023/07/01 06:06:07;;;;;;;6.18;2.83;;;16.60;99.90;;;;;;5043495;28;20021;-81
2023/07/01 06:08:33;;;;;;;3.92;3.20;;;16.60;99.90;;;;;;5020982;28;20396;-81
2023/07/01 06:10:58;;;;;;;4.60;3.10;;;16.60;99.90;;;;;;5022970;28;20623;-78
2023/07/01 06:13:24;;;;;;;4.15;3.30;;;16.60;99.90;;;;;;5015080;28;20099;-81
2023/07/01 06:15:50;;;;;;;5.65;3.55;;;16.50;99.90;;;;;;5028063;28;20466;-78
2023/07/01 06:18:15;;;;;;;4.05;3.00;;;16.60;99.90;;;;;;5026859;28;20087;-79
2023/07/01 06:20:41;;;;;;;5.55;3.10;;;16.50;99.90;;;;;;5042486;28;20096;-79
2023/07/01 06:23:06;;;;;;;5.75;3.97;;;16.50;99.90;;;;;;5023769;28;20018;-78
2023/07/01 06:25:32;;;;;;;5.95;4.07;;;16.50;99.90;;;;;;5028230;28;20110;-78
2023/07/01 06:27:57;;;;;;;5.57;3.78;;;16.40;99.90;;;;;;5046120;28;20468;-79
2023/07/01 06:30:23;;;;;;;4.78;4.10;;;16.40;99.90;;;;;;5040839;28;20057;-77
2023/07/01 06:32:48;;;;;;;4.15;3.55;;;16.40;99.90;;;;;;5045083;28;20017;-77
2023/07/01 06:35:14;;;;;;;3.85;3.55;;;16.30;99.90;;;;;;5037651;28;20114;-77
2023/07/01 06:37:39;;;;;;;6.90;3.97;;;16.40;99.90;;;;;;5041772;28;20441;-76
2023/07/01 06:40:05;;;;;;;6.50;4.22;;;16.30;99.90;;;;;;5023424;28;20574;-77
2023/07/01 06:42:31;;;;;;;4.85;3.55;;;16.30;99.90;;;;;;5045406;28;20048;-77
2023/07/01 06:44:56;;;;;;;6.45;4.15;;;16.30;99.90;;;;;;5023959;28;20049;-79
2023/07/01 06:47:22;;;;;;;4.75;3.95;;;16.20;99.90;;;;;;5028159;28;20055;-77
2023/07/01 06:49:47;;;;;;;7.30;3.95;;;16.30;99.90;;;;;;5027140;28;20025;-77
2023/07/01 06:52:13;;;;;;;4.82;4.07;;;16.30;99.90;;;;;;5044843;28;20029;-78
2023/07/01 06:54:38;;;;;;;6.25;3.78;;;16.20;99.90;;;;;;5028748;28;20025;-78
2023/07/01 06:57:04;;;;;;;5.10;4.47;;;16.20;99.90;;;;;;5045857;28;20025;-79
2023/07/01 06:59:30;;;;;;;5.10;4.15;;;16.30;99.90;;;;;;5043151;28;20067;-77
2023/07/01 07:01:55;;;;;;;4.53;3.75;;;16.30;99.90;;;;;;5024566;28;20034;-77
2023/07/01 07:04:21;;;;;;;6.57;4.63;;;16.30;99.90;;;;;;5044842;28;20025;-79
2023/07/01 07:06:46;;;;;;;4.78;4.38;;;16.30;99.90;;;;;;5035076;28;20027;-80
2023/07/01 07:09:12;;;;;;;6.75;4.28;;;16.30;99.90;;;;;;5022715;28;20030;-80
2023/07/01 07:11:40;;;;;;;5.90;3.92;;;16.30;99.90;;;;;;5027780;28;20045;-80
2023/07/01 07:14:05;;;;;;;5.82;3.92;;;16.30;99.90;;;;;;5046670;28;20028;-82
2023/07/01 07:16:33;;;;;;;5.43;4.72;;;16.30;99.90;;;;;;5033178;28;20025;-81
2023/07/01 07:18:58;;;;;;;4.20;3.85;;;16.20;99.90;;;;;;5043333;28;20764;-80
2023/07/01 07:21:24;;;;;;;5.93;4.25;;;16.20;99.90;;;;;;5030696;28;20021;-80
2023/07/01 07:23:50;;;;;;;5.00;4.50;;;16.20;99.90;;;;;;5025685;28;20055;-81
2023/07/01 07:26:15;;;;;;;5.22;4.72;;;16.20;99.90;;;;;;5036764;28;20057;-80
2023/07/01 07:28:41;;;;;;;4.68;4.22;;;16.10;99.90;;;;;;5030514;28;20040;-81
2023/07/01 07:31:06;;;;;;;4.85;4.22;;;16.10;99.90;;;;;;5041671;28;20036;-81
2023/07/01 07:33:32;;;;;;;4.57;3.80;;;16.10;99.90;;;;;;5047928;28;20032;-81
2023/07/01 07:35:57;;;;;;;4.57;4.18;;;16.20;99.90;;;;;;5024841;28;20032;-79
2023/07/01 07:38:23;;;;;;;4.38;3.97;;;16.10;99.90;;;;;;5029904;28;20057;-81
2023/07/01 07:40:49;;;;;;;8.73;4.70;;;16.10;99.90;;;;;;5047712;28;20076;-82
2023/07/01 07:43:14;;;;;;;6.07;3.80;;;16.10;99.90;;;;;;5013343;28;20163;-83
2023/07/01 07:45:40;;;;;;;6.68;3.83;;;16.20;99.90;;;;;;5024435;28;20076;-78
2023/07/01 07:48:06;;;;;;;4.40;4.00;;;16.10;99.90;;;;;;5040815;28;20040;-81
2023/07/01 07:50:35;;;;;;;4.90;3.85;;;16.10;99.90;;;;;;5025376;28;20115;-81
2023/07/01 07:53:01;;;;;;;6.97;4.03;;;16.10;99.90;;;;;;5032985;28;20048;-82
2023/07/01 07:55:28;;;;;;;4.53;3.92;;;16.10;99.90;;;;;;5025028;28;20402;-82
2023/07/01 07:57:53;;;;;;;4.60;3.97;;;16.00;99.90;;;;;;5034114;28;20032;-82
2023/07/01 08:00:19;;;;;;;7.53;3.88;;;16.10;99.90;;;;;;5026010;28;20452;-82
2023/07/01 08:02:47;;;;;;;6.47;4.07;;;16.10;99.90;;;;;;5043351;28;20036;-85
2023/07/01 08:05:17;;;;;;;4.88;4.47;;;16.10;99.90;;;;;;5032835;28;20050;-80
2023/07/01 08:07:47;;;;;;;7.90;4.43;;;16.20;99.90;;;;;;5039362;28;20107;-82
2023/07/01 08:10:14;;;;;;;5.47;4.47;;;16.10;99.90;;;;;;5047195;28;20436;-81
2023/07/01 08:12:40;;;;;;;5.30;4.40;;;16.10;99.90;;;;;;5001780;28;20441;-84
2023/07/01 08:15:06;;;;;;;6.53;4.47;;;16.10;99.90;;;;;;5032556;28;20081;-83
2023/07/01 08:17:32;;;;;;;7.18;4.10;;;16.10;99.90;;;;;;5026166;28;20026;-84
2023/07/01 08:19:58;;;;;;;6.15;4.43;;;16.10;99.90;;;;;;5025918;28;20032;-84
2023/07/01 08:22:24;;;;;;;7.07;4.60;;;16.10;99.90;;;;;;5023662;28;20024;-85
2023/07/01 08:24:49;;;;;;;4.38;3.97;;;16.00;99.90;;;;;;5044608;28;20021;-83
2023/07/01 08:27:15;;;;;;;5.13;4.57;;;16.00;99.90;;;;;;5030447;28;20084;-83
2023/07/01 08:29:41;;;;;;;6.68;4.45;;;16.00;99.90;;;;;;5021252;28;20022;-83
2023/07/01 08:32:07;;;;;;;4.43;4.03;;;15.90;99.90;;;;;;5032214;28;20033;-83
2023/07/01 08:34:35;;;;;;;5.65;4.95;;;16.00;99.90;;;;;;5020655;28;20022;-84
2023/07/01 08:37:00;;;;;;;5.88;4.82;;;16.00;99.90;;;;;;5025719;28;20047;-83
2023/07/01 08:39:26;;;;;;;5.35;4.85;;;16.00;99.90;;;;;;5022522;28;20489;-83
2023/07/01 08:41:56;;;;;;;5.13;4.68;;;16.00;99.90;;;;;;5029456;28;20052;-82
2023/07/01 08:44:23;;;;;;;5.45;4.90;;;16.00;99.90;;;;;;5013952;28;20056;-82
2023/07/01 08:46:52;;;;;;;6.38;5.00;;;16.00;99.90;;;;;;5022211;28;20021;-83
2023/07/01 08:49:23;;;;;;;4.93;4.53;;;16.00;99.90;;;;;;5041609;28;20054;-83
2023/07/01 08:51:59;;;;;;;6.13;5.30;;;16.00;99.90;;;;;;5035383;28;20017;-83
2023/07/01 08:54:26;;;;;;;6.50;5.55;;;16.00;99.90;;;;;;5021710;28;20083;-83
2023/07/01 08:56:51;;;;;;;6.55;5.40;;;16.00;99.90;;;;;;5043121;28;20029;-82
2023/07/01 08:59:18;;;;;;;5.50;5.00;;;16.00;99.90;;;;;;5029611;28;20538;-83
2023/07/01 09:01:44;;;;;;;6.05;5.53;;;16.10;99.90;;;;;;5023233;28;20036;-84
2023/07/01 09:04:10;;;;;;;5.97;5.40;;;16.00;99.90;;;;;;5025264;28;20396;-85
2023/07/01 09:06:36;;;;;;;7.70;5.60;;;16.00;99.90;;;;;;5026140;28;20028;-82
2023/07/01 09:09:02;;;;;;;9.80;5.57;;;16.00;99.90;;;;;;5023598;28;20033;-80
2023/07/01 09:11:28;;;;;;;7.60;5.53;;;16.00;99.90;;;;;;5028882;28;20407;-83
2023/07/01 09:13:57;;;;;;;5.95;5.32;;;16.00;99.90;;;;;;5017477;28;20025;-82
2023/07/01 09:16:34;;;;;;;6.35;5.85;;;16.00;99.90;;;;;;5029976;28;20492;-83
2023/07/01 09:19:07;;;;;;;7.63;6.55;;;16.10;99.90;;;;;;5054262;28;21014;-83
2023/07/01 09:21:34;;;;;;;6.82;5.70;;;16.00;99.90;;;;;;5040868;28;20113;-81
2023/07/01 09:24:00;;;;;;;7.25;5.93;;;16.00;99.90;;;;;;5022818;28;20634;-83
2023/07/01 09:26:30;;;;;;;7.75;6.22;;;16.00;99.90;;;;;;5025732;28;20037;-83
2023/07/01 09:28:57;;;;;;;6.93;6.28;;;16.10;99.90;;;;;;5020294;28;20040;-82
2023/07/01 09:31:22;;;;;;;6.00;5.43;;;16.00;99.90;;;;;;5038171;28;20120;-82
2023/07/01 09:34:06;;;;;;;6.57;5.97;;;16.00;99.90;;;;;;5027493;28;20455;-84
2023/07/01 09:36:32;;;;;;;6.85;6.20;;;16.10;99.90;;;;;;5019096;28;20120;-85
2023/07/01 09:38:59;;;;;;;6.55;5.93;;;16.10;99.90;;;;;;5030127;28;20136;-84
2023/07/01 09:41:30;;;;;;;8.25;5.95;;;16.10;99.90;;;;;;5045420;28;20592;-84
2023/07/01 09:43:59;;;;;;;6.05;5.55;;;16.00;99.90;;;;;;5023385;28;20119;-84
2023/07/01 09:46:46;;;;;;;6.22;5.50;;;16.00;99.90;;;;;;5022597;28;20625;-85
2023/07/01 09:49:12;;;;;;;6.18;5.43;;;16.10;99.90;;;;;;5022150;28;20123;-83
2023/07/01 09:52:05;;;;;;;6.32;5.72;;;16.10;99.90;;;;;;5029776;28;20429;-85
2023/07/01 09:54:32;;;;;;;5.70;5.20;;;16.10;99.90;;;;;;5027502;28;20491;-85
2023/07/01 09:56:59;;;;;;;6.15;5.55;;;16.10;99.90;;;;;;5027023;28;20026;-84
2023/07/01 09:59:26;;;;;;;7.03;6.18;;;16.20;99.90;;;;;;5029916;28;20400;-84
2023/07/01 10:01:54;;;;;;;7.05;6.35;;;16.20;99.90;;;;;;5025424;28;20646;-84
2023/07/01 10:04:25;;;;;;;7.30;6.60;;;16.20;99.90;;;;;;5022354;28;20044;-82
2023/07/01 10:06:51;;;;;;;6.35;5.82;;;16.20;99.90;;;;;;5020896;28;20078;-86
2023/07/01 10:09:16;;;;;;;7.07;6.47;;;16.20;99.90;;;;;;5009718;28;20163;-84
2023/07/01 10:11:43;;;;;;;6.05;5.43;;;16.20;99.90;;;;;;5029864;28;20053;-85
2023/07/01 10:14:10;;;;;;;7.22;6.55;;;16.20;99.90;;;;;;5037646;28;20084;-84
2023/07/01 10:16:49;;;;;;;7.13;6.07;;;16.20;99.90;;;;;;5031898;28;20029;-83
2023/07/01 10:19:31;;;;;;;6.88;6.28;;;16.20;99.90;;;;;;5042858;28;20025;-84
2023/07/01 10:22:28;;;;;;;7.20;6.60;;;16.20;99.90;;;;;;5033259;28;20022;-84
2023/07/01 10:25:09;;;;;;;7.72;6.97;;;16.20;99.90;;;;;;5020954;28;20021;-84
2023/07/01 10:27:41;;;;;;;9.40;6.78;;;16.30;99.90;;;;;;5031685;28;20022;-86
2023/07/01 10:30:13;;;;;;;6.97;6.32;;;16.30;99.90;;;;;;5030299;28;20022;-84
2023/07/01 10:32:40;;;;;;;8.05;6.50;;;16.30;99.90;;;;;;5023769;28;20033;-84
2023/07/01 10:35:09;;;;;;;7.57;6.75;;;16.30;99.90;;;;;;5036176;28;20041;-85
2023/07/01 10:37:35;;;;;;;7.32;6.63;;;16.30;99.90;;;;;;5024763;28;20116;-84
2023/07/01 10:40:07;;;;;;;7.82;6.88;;;16.30;99.90;;;;;;5025297;28;20495;-84
2023/07/01 10:42:36;;;;;;;6.63;6.10;;;16.30;99.90;;;;;;5031942;28;20112;-84
2023/07/01 10:45:11;;;;;;;7.35;6.65;;;16.30;99.90;;;;;;5041521;28;20105;-85
2023/07/01 10:47:44;;;;;;;8.18;7.40;;;16.30;99.90;;;;;;5030030;28;20082;-84
2023/07/01 10:50:14;;;;;;;7.45;6.70;;;16.40;99.90;;;;;;5022993;28;20033;-84
2023/07/01 10:53:04;;;;;;;7.93;6.88;;;16.30;99.90;;;;;;5047330;28;20036;-84
2023/07/01 10:55:44;;;;;;;6.93;6.30;;;16.30;99.90;;;;;;5014539;28;20025;-83
2023/07/01 10:58:25;;;;;;;7.82;7.13;;;16.40;99.90;;;;;;5048512;28;20029;-85
2023/07/01 11:00:53;;;;;;;8.27;7.55;;;16.40;99.90;;;;;;5042354;28;20059;-84
2023/07/01 11:03:34;;;;;;;7.78;7.05;;;16.40;99.90;;;;;;5014827;28;20427;-85
2023/07/01 11:06:03;;;;;;;10.93;7.65;;;16.40;99.90;;;;;;5014941;28;20018;-84
2023/07/01 11:08:30;;;;;;;8.75;8.05;;;16.40;99.90;;;;;;5015922;28;20028;-86
2023/07/01 11:10:56;;;;;;;9.30;8.05;;;16.40;99.90;;;;;;5029469;28;20090;-85
2023/07/01 11:13:23;;;;;;;8.55;7.70;;;16.50;99.90;;;;;;5023935;28;20025;-85
2023/07/01 11:16:01;;;;;;;10.00;7.50;;;16.50;99.90;;;;;;5029887;28;20448;-84
2023/07/01 11:18:54;;;;;;;9.05;8.30;;;16.50;99.90;;;;;;5029789;28;20438;-85
2023/07/01 11:21:25;;;;;;;7.93;7.13;;;16.50;99.90;;;;;;5022171;28;20040;-84
2023/07/01 11:24:03;;;;;;;10.52;8.02;;;16.50;99.90;;;;;;5023627;28;20101;-82
2023/07/01 11:26:47;;;;;;;14.73;13.20;;;16.50;99.90;;;;;;5030224;28;20021;-84
2023/07/01 11:29:17;;;;;;;12.20;10.98;;;16.50;99.90;;;;;;5019160;28;20380;-84
2023/07/01 11:31:42;;;;;;;8.27;7.68;;;16.50;99.90;;;;;;5033748;28;20067;-85
2023/07/01 11:34:10;;;;;;;8.02;7.32;;;16.50;99.90;;;;;;5028982;28;20029;-84
2023/07/01 11:36:38;;;;;;;6.55;5.93;;;16.50;99.90;;;;;;5017732;28;20499;-84
2023/07/01 11:39:08;;;;;;;7.30;6.60;;;16.50;99.90;;;;;;5042968;28;20037;-84
2023/07/01 11:41:35;;;;;;;6.78;6.18;;;16.50;99.90;;;;;;5028002;28;20031;-84
2023/07/01 11:44:02;;;;;;;8.27;6.63;;;16.50;99.90;;;;;;5039733;28;20075;-85
2023/07/01 11:46:38;;;;;;;7.55;6.88;;;16.50;99.90;;;;;;5023919;28;20362;-84
2023/07/01 11:49:21;;;;;;;7.05;6.45;;;16.60;99.90;;;;;;5022559;28;20111;-84
2023/07/01 11:51:57;;;;;;;6.47;5.95;;;16.50;99.90;;;;;;5025988;28;20108;-85
2023/07/01 11:54:38;;;;;;;6.63;6.03;;;16.50;99.90;;;;;;5040422;28;20031;-85
2023/07/01 11:57:15;;;;;;;7.25;6.65;;;16.50;99.90;;;;;;5039422;28;20032;-85
2023/07/01 11:59:43;;;;;;;8.27;7.43;;;16.50;99.90;;;;;;5045531;28;20100;-84
2023/07/01 12:02:10;;;;;;;7.10;6.50;;;16.60;99.90;;;;;;5016524;28;20041;-84
2023/07/01 12:04:36;;;;;;;7.13;6.53;;;16.60;99.90;;;;;;5032838;28;20109;-83
2023/07/01 12:07:15;;;;;;;7.07;6.47;;;16.60;99.90;;;;;;5021635;28;20429;-84
2023/07/01 12:09:42;;;;;;;7.47;6.80;;;16.60;99.90;;;;;;5026841;28;20116;-84
2023/07/01 12:12:15;;;;;;;7.20;6.57;;;16.60;99.90;;;;;;5030729;28;20021;-83
2023/07/01 12:14:41;;;;;;;6.28;5.78;;;16.60;99.90;;;;;;5050354;28;20029;-83
2023/07/01 12:17:08;;;;;;;7.38;6.65;;;16.60;99.90;;;;;;5027978;28;20021;-84
2023/07/01 12:19:34;;;;;;;6.78;5.80;;;16.60;99.90;;;;;;5014213;28;20082;-84
2023/07/01 12:22:00;;;;;;;6.15;5.65;;;16.60;99.90;;;;;;5023651;28;20057;-83
2023/07/01 12:24:29;;;;;;;7.45;6.15;;;16.60;99.90;;;;;;5015787;28;20056;-84
2023/07/01 12:27:00;;;;;;;6.80;6.07;;;16.60;99.90;;;;;;5033049;28;20387;-84
2023/07/01 12:29:26;;;;;;;6.50;6.00;;;16.60;99.90;;;;;;5016115;28;20022;-84
2023/07/01 12:31:57;;;;;;;6.28;5.78;;;16.70;99.90;;;;;;5026334;28;20116;-84
2023/07/01 12:34:23;;;;;;;6.05;5.45;;;16.70;99.90;;;;;;5023086;28;20471;-85
2023/07/01 12:36:49;;;;;;;6.57;5.70;;;16.70;99.90;;;;;;5025358;28;20113;-84
2023/07/01 12:39:17;;;;;;;5.57;5.10;;;16.70;99.90;;;;;;5021597;28;20041;-84
2023/07/01 12:41:44;;;;;;;8.95;5.82;;;16.70;99.90;;;;;;5042066;28;20167;-83
2023/07/01 12:44:10;;;;;;;7.28;5.60;;;16.80;99.90;;;;;;5021655;28;20025;-83
2023/07/01 12:46:36;;;;;;;5.28;4.78;;;16.80;99.90;;;;;;5023714;28;20048;-85
2023/07/01 12:49:03;;;;;;;8.25;4.75;;;16.90;99.90;;;;;;5029352;28;20033;-84